Viking Amber — 9V7985 — position and weather

sailwx.info

Track history (hours):
 
Tides and Currents Weather Stations Pressure Air Temp Water Temp Dewpoint Dewpoint Depression Visibility Wind Speed Wind Dir Waves Ship Positions

Viking Amber

Last reported at 2017-Aug-13 02:56 UTC. Time now 2017-Aug-18 20:30 UTC.
Position N 34°47' E 139°36'.

Length 167 m; draft 8.1 m.

Type: Other ship. MMSI: 563255000.

Date/timePositionNaut miles runAvg speedWind from/ knotsBaromVisibWave heightAir tempDewpointWater temp
2017-Aug-13 02:56N 34°47' E 139°36'817.8
2017-Aug-13 02:30N 34°55' E 139°38'917.1
2017-Aug-13 02:00N 35°03' E 139°42'714.9
2017-Aug-13 01:30N 35°10' E 139°45'611.4
2017-Aug-13 01:01N 35°15' E 139°46'612.6
2017-Aug-13 00:31N 35°21' E 139°42'611.9
2017-Aug-13 00:01N 35°27' E 139°42'1 1.3
2017-Aug-12 23:28N 35°27' E 139°41'0 0.0
2017-Aug-12 22:58N 35°27' E 139°41'0 0.0
2017-Aug-12 22:28N 35°27' E 139°41'0 0.0
2017-Aug-12 21:55N 35°27' E 139°41'0 0.0
2017-Aug-12 21:28N 35°27' E 139°41'0 0.0
2017-Aug-12 20:58N 35°27' E 139°41'0 0.0
2017-Aug-12 20:28N 35°27' E 139°41'0 0.0
2017-Aug-12 19:58N 35°27' E 139°41'0 0.0
2017-Aug-12 19:25N 35°27' E 139°41'0 0.0
2017-Aug-12 18:58N 35°27' E 139°41'0 0.0
2017-Aug-12 18:25N 35°27' E 139°41'0 0.0
2017-Aug-12 17:58N 35°27' E 139°41'0 0.0
2017-Aug-12 17:28N 35°27' E 139°41'0 0.0
2017-Aug-12 16:58N 35°27' E 139°41'0 0.0
2017-Aug-12 16:28N 35°27' E 139°41'0 0.0
2017-Aug-12 15:58N 35°27' E 139°41'0 0.0
2017-Aug-12 15:28N 35°27' E 139°41'0 0.0
2017-Aug-12 14:58N 35°27' E 139°41'0 0.0
2017-Aug-12 14:28N 35°27' E 139°41'0 0.0
2017-Aug-12 13:58N 35°27' E 139°41'0 0.0
2017-Aug-12 13:28N 35°27' E 139°41'0 0.0
2017-Aug-12 12:58N 35°27' E 139°41'0 0.0
2017-Aug-12 12:28N 35°27' E 139°41'0 0.0
2017-Aug-12 11:58N 35°27' E 139°41'0 0.0
2017-Aug-12 11:28N 35°27' E 139°41'0 0.0
2017-Aug-12 10:58N 35°27' E 139°41'0 0.0
2017-Aug-12 10:28N 35°27' E 139°41'0 0.0
2017-Aug-12 09:58N 35°27' E 139°41'0 0.0
2017-Aug-12 09:28N 35°27' E 139°41'0 0.0
2017-Aug-12 08:58N 35°27' E 139°41'0 0.0
2017-Aug-12 08:28N 35°27' E 139°41'0 0.0
2017-Aug-12 07:58N 35°27' E 139°41'0 0.0
2017-Aug-12 07:28N 35°27' E 139°41'0 0.0
2017-Aug-12 06:58N 35°27' E 139°41'0 0.0
2017-Aug-12 06:28N 35°27' E 139°41'0 0.0
2017-Aug-12 05:58N 35°27' E 139°41'0 0.0
2017-Aug-12 05:28N 35°27' E 139°41'0 0.0
2017-Aug-12 04:58N 35°27' E 139°41'0 0.0
2017-Aug-12 04:28N 35°27' E 139°41'0 0.0
2017-Aug-12 03:58N 35°27' E 139°41'0 0.0
2017-Aug-12 03:28N 35°27' E 139°41'0 0.0
2017-Aug-12 02:58N 35°27' E 139°41'0 0.0
2017-Aug-12 02:28N 35°27' E 139°41'0 0.0
2017-Aug-12 01:58N 35°27' E 139°41'0 0.0
2017-Aug-12 01:28N 35°27' E 139°41'0 0.0
2017-Aug-12 00:58N 35°27' E 139°41'0 0.0
2017-Aug-12 00:28N 35°27' E 139°41'0 0.0
2017-Aug-11 23:58N 35°27' E 139°41'0 0.0
2017-Aug-11 23:28N 35°27' E 139°41'0 0.0
2017-Aug-11 22:58N 35°27' E 139°41'0 0.1
2017-Aug-11 22:30N 35°27' E 139°41'0 0.1
2017-Aug-11 22:00N 35°27' E 139°41'1 2.3
2017-Aug-11 21:30N 35°26' E 139°42'4 7.2
2017-Aug-11 21:00N 35°23' E 139°43'510.9
2017-Aug-11 20:30N 35°18' E 139°45'611.6
2017-Aug-11 20:00N 35°12' E 139°47'4 7.4
2017-Aug-11 19:30N 35°08' E 139°46'5 9.6
2017-Aug-11 19:00N 35°04' E 139°44'713.7
2017-Aug-11 18:30N 34°60' E 139°37'814.3
2017-Aug-11 17:55N 34°55' E 139°29'  
2017-Aug-09 13:01N 33°56' E 134°59'018.1
2017-Aug-09 13:00N 33°56' E 134°59'917.0
2017-Aug-09 12:30N 34°05' E 134°57'714.7
2017-Aug-09 12:01N 34°12' E 134°56'612.1
2017-Aug-09 11:30N 34°18' E 134°58'714.7
2017-Aug-09 11:00N 34°24' E 135°03'816.3
2017-Aug-09 10:30N 34°28' E 135°12'815.3
2017-Aug-09 10:00N 34°31' E 135°20'3 3.8
2017-Aug-09 09:08N 34°32' E 135°24'0 0.0
2017-Aug-09 06:57N 34°32' E 135°24'0 0.0
2017-Aug-09 06:26N 34°32' E 135°24'0 0.0
2017-Aug-09 03:50N 34°32' E 135°24'0 0.0
2017-Aug-09 03:26N 34°32' E 135°24'0 0.0
2017-Aug-09 02:20N 34°32' E 135°24'0 0.0
2017-Aug-09 01:38N 34°32' E 135°24'0 0.0
2017-Aug-09 01:26N 34°32' E 135°24'0 0.0
2017-Aug-09 00:56N 34°32' E 135°24'0 0.0
2017-Aug-09 00:26N 34°32' E 135°24'0 0.0
2017-Aug-08 09:08N 34°32' E 135°24'0 0.0
2017-Aug-08 09:00N 34°32' E 135°24'2 4.9
2017-Aug-08 08:30N 34°33' E 135°21'612.8
2017-Aug-08 08:00N 34°30' E 135°15'815.7
2017-Aug-08 07:30N 34°25' E 135°07'1314.2
2017-Aug-08 06:37N 34°14' E 134°60'112.2
2017-Aug-08 06:30N 34°13' E 134°60'510.5
2017-Aug-08 06:00N 34°07' E 135°00'510.8
2017-Aug-08 05:30N 34°02' E 135°00'5 9.3
2017-Aug-08 05:00N 33°57' E 135°00'  
Track history (hours):
 
Tides and Currents Weather Stations Pressure Air Temp Water Temp Dewpoint Dewpoint Depression Visibility Wind Speed Wind Dir Waves Ship Positions

Viking Amber

Last reported at 2017-Aug-13 02:56 UTC. Time now 2017-Aug-18 20:30 UTC.
Position N 34°47' E 139°36'.

Length 167 m; draft 8.1 m.

Type: Other ship. MMSI: 563255000.

Date/timePositionNaut miles runAvg speedWind from/ knotsBaromVisibWave heightAir tempDewpointWater temp
2017-Aug-13 02:56N 34°47' E 139°36'817.8
2017-Aug-13 02:30N 34°55' E 139°38'917.1
2017-Aug-13 02:00N 35°03' E 139°42'714.9
2017-Aug-13 01:30N 35°10' E 139°45'611.4
2017-Aug-13 01:01N 35°15' E 139°46'612.6
2017-Aug-13 00:31N 35°21' E 139°42'611.9
2017-Aug-13 00:01N 35°27' E 139°42'1 1.3
2017-Aug-12 23:28N 35°27' E 139°41'0 0.0
2017-Aug-12 22:58N 35°27' E 139°41'0 0.0
2017-Aug-12 22:28N 35°27' E 139°41'0 0.0
2017-Aug-12 21:55N 35°27' E 139°41'0 0.0
2017-Aug-12 21:28N 35°27' E 139°41'0 0.0
2017-Aug-12 20:58N 35°27' E 139°41'0 0.0
2017-Aug-12 20:28N 35°27' E 139°41'0 0.0
2017-Aug-12 19:58N 35°27' E 139°41'0 0.0
2017-Aug-12 19:25N 35°27' E 139°41'0 0.0
2017-Aug-12 18:58N 35°27' E 139°41'0 0.0
2017-Aug-12 18:25N 35°27' E 139°41'0 0.0
2017-Aug-12 17:58N 35°27' E 139°41'0 0.0
2017-Aug-12 17:28N 35°27' E 139°41'0 0.0
2017-Aug-12 16:58N 35°27' E 139°41'0 0.0
2017-Aug-12 16:28N 35°27' E 139°41'0 0.0
2017-Aug-12 15:58N 35°27' E 139°41'0 0.0
2017-Aug-12 15:28N 35°27' E 139°41'0 0.0
2017-Aug-12 14:58N 35°27' E 139°41'0 0.0
2017-Aug-12 14:28N 35°27' E 139°41'0 0.0
2017-Aug-12 13:58N 35°27' E 139°41'0 0.0
2017-Aug-12 13:28N 35°27' E 139°41'0 0.0
2017-Aug-12 12:58N 35°27' E 139°41'0 0.0
2017-Aug-12 12:28N 35°27' E 139°41'0 0.0
2017-Aug-12 11:58N 35°27' E 139°41'0 0.0
2017-Aug-12 11:28N 35°27' E 139°41'0 0.0
2017-Aug-12 10:58N 35°27' E 139°41'0 0.0
2017-Aug-12 10:28N 35°27' E 139°41'0 0.0
2017-Aug-12 09:58N 35°27' E 139°41'0 0.0
2017-Aug-12 09:28N 35°27' E 139°41'0 0.0
2017-Aug-12 08:58N 35°27' E 139°41'0 0.0
2017-Aug-12 08:28N 35°27' E 139°41'0 0.0
2017-Aug-12 07:58N 35°27' E 139°41'0 0.0
2017-Aug-12 07:28N 35°27' E 139°41'0 0.0
2017-Aug-12 06:58N 35°27' E 139°41'0 0.0
2017-Aug-12 06:28N 35°27' E 139°41'0 0.0
2017-Aug-12 05:58N 35°27' E 139°41'0 0.0
2017-Aug-12 05:28N 35°27' E 139°41'0 0.0
2017-Aug-12 04:58N 35°27' E 139°41'0 0.0
2017-Aug-12 04:28N 35°27' E 139°41'0 0.0
2017-Aug-12 03:58N 35°27' E 139°41'0 0.0
2017-Aug-12 03:28N 35°27' E 139°41'0 0.0
2017-Aug-12 02:58N 35°27' E 139°41'0 0.0
2017-Aug-12 02:28N 35°27' E 139°41'0 0.0
2017-Aug-12 01:58N 35°27' E 139°41'0 0.0
2017-Aug-12 01:28N 35°27' E 139°41'0 0.0
2017-Aug-12 00:58N 35°27' E 139°41'0 0.0
2017-Aug-12 00:28N 35°27' E 139°41'0 0.0
2017-Aug-11 23:58N 35°27' E 139°41'0 0.0
2017-Aug-11 23:28N 35°27' E 139°41'0 0.0
2017-Aug-11 22:58N 35°27' E 139°41'0 0.1
2017-Aug-11 22:30N 35°27' E 139°41'0 0.1
2017-Aug-11 22:00N 35°27' E 139°41'1 2.3
2017-Aug-11 21:30N 35°26' E 139°42'4 7.2
2017-Aug-11 21:00N 35°23' E 139°43'510.9
2017-Aug-11 20:30N 35°18' E 139°45'611.6
2017-Aug-11 20:00N 35°12' E 139°47'4 7.4
2017-Aug-11 19:30N 35°08' E 139°46'5 9.6
2017-Aug-11 19:00N 35°04' E 139°44'713.7
2017-Aug-11 18:30N 34°60' E 139°37'814.3
2017-Aug-11 17:55N 34°55' E 139°29'  
2017-Aug-09 13:01N 33°56' E 134°59'018.1
2017-Aug-09 13:00N 33°56' E 134°59'917.0
2017-Aug-09 12:30N 34°05' E 134°57'714.7
2017-Aug-09 12:01N 34°12' E 134°56'612.1
2017-Aug-09 11:30N 34°18' E 134°58'714.7
2017-Aug-09 11:00N 34°24' E 135°03'816.3
2017-Aug-09 10:30N 34°28' E 135°12'815.3
2017-Aug-09 10:00N 34°31' E 135°20'3 3.8
2017-Aug-09 09:08N 34°32' E 135°24'0 0.0
2017-Aug-09 06:57N 34°32' E 135°24'0 0.0
2017-Aug-09 06:26N 34°32' E 135°24'0 0.0
2017-Aug-09 03:50N 34°32' E 135°24'0 0.0
2017-Aug-09 03:26N 34°32' E 135°24'0 0.0
2017-Aug-09 02:20N 34°32' E 135°24'0 0.0
2017-Aug-09 01:38N 34°32' E 135°24'0 0.0
2017-Aug-09 01:26N 34°32' E 135°24'0 0.0
2017-Aug-09 00:56N 34°32' E 135°24'0 0.0
2017-Aug-09 00:26N 34°32' E 135°24'0 0.0
2017-Aug-08 09:08N 34°32' E 135°24'0 0.0
2017-Aug-08 09:00N 34°32' E 135°24'2 4.9
2017-Aug-08 08:30N 34°33' E 135°21'612.8
2017-Aug-08 08:00N 34°30' E 135°15'815.7
2017-Aug-08 07:30N 34°25' E 135°07'1314.2
2017-Aug-08 06:37N 34°14' E 134°60'112.2
2017-Aug-08 06:30N 34°13' E 134°60'510.5
2017-Aug-08 06:00N 34°07' E 135°00'510.8
2017-Aug-08 05:30N 34°02' E 135°00'5 9.3
2017-Aug-08 05:00N 33°57' E 135°00'  

Dump ship's entire track history